Time;durP1;ratioP1;P1;durP2;ratioP2;P2;SDS_P1;SDS_P2;PMS_P1;PMS_P2;Temp;Humidity;BMP_temperature;BMP_pressure;BME280_temperature;BME280_humidity;BME280_pressure;Samples;Min_cycle;Max_cycle;Signal;HPM_P1;HPM_P2
2020/12/20 00:00:06;;;;;;;3;2.6;;;;;;;;;;;;;
2020/12/20 00:02:33;;;;;;;2.5;1.4;;;;;;;;;;;;;
2020/12/20 00:04:58;;;;;;;0.8;0.7;;;;;;;;;;;;;
2020/12/20 00:07:24;;;;;;;1.5;1;;;;;;;;;;;;;
2020/12/20 00:09:49;;;;;;;2.5;1.4;;;;;;;;;;;;;
2020/12/20 00:12:15;;;;;;;2.1;1.2;;;;;;;;;;;;;
2020/12/20 00:14:40;;;;;;;1.8;1;;;;;;;;;;;;;
2020/12/20 00:17:07;;;;;;;1.1;1;;;;;;;;;;;;;
2020/12/20 00:19:32;;;;;;;1;0.7;;;;;;;;;;;;;
2020/12/20 00:21:59;;;;;;;2.9;0.8;;;;;;;;;;;;;
2020/12/20 00:24:24;;;;;;;2.8;2;;;;;;;;;;;;;
2020/12/20 00:26:50;;;;;;;8.5;2.9;;;;;;;;;;;;;
2020/12/20 00:29:15;;;;;;;4.6;2.7;;;;;;;;;;;;;
2020/12/20 00:31:41;;;;;;;3.6;1.6;;;;;;;;;;;;;
2020/12/20 00:34:06;;;;;;;5.3;2.8;;;;;;;;;;;;;
2020/12/20 00:36:32;;;;;;;14.2;3;;;;;;;;;;;;;
2020/12/20 00:38:58;;;;;;;8.4;3;;;;;;;;;;;;;
2020/12/20 00:41:24;;;;;;;3.3;2.5;;;;;;;;;;;;;
2020/12/20 00:43:49;;;;;;;2.3;1.7;;;;;;;;;;;;;
2020/12/20 00:46:14;;;;;;;3.6;2.6;;;;;;;;;;;;;
2020/12/20 00:48:40;;;;;;;3.5;2.2;;;;;;;;;;;;;
2020/12/20 00:51:06;;;;;;;2.2;2;;;;;;;;;;;;;
2020/12/20 00:53:30;;;;;;;5.8;2.3;;;;;;;;;;;;;
2020/12/20 00:55:57;;;;;;;4.3;2.2;;;;;;;;;;;;;
2020/12/20 00:58:22;;;;;;;3.1;1.9;;;;;;;;;;;;;
2020/12/20 01:00:53;;;;;;;3.1;1.8;;;;;;;;;;;;;
2020/12/20 01:03:21;;;;;;;2.9;1.9;;;;;;;;;;;;;
2020/12/20 01:05:46;;;;;;;7.7;2.7;;;;;;;;;;;;;
2020/12/20 01:08:12;;;;;;;2.7;1.9;;;;;;;;;;;;;
2020/12/20 01:10:36;;;;;;;2.6;1.7;;;;;;;;;;;;;
2020/12/20 01:13:01;;;;;;;4.1;2.4;;;;;;;;;;;;;
2020/12/20 01:15:29;;;;;;;2.1;1.7;;;;;;;;;;;;;
2020/12/20 01:17:51;;;;;;;5.8;2.1;;;;;;;;;;;;;
2020/12/20 01:20:17;;;;;;;3.6;1.6;;;;;;;;;;;;;
2020/12/20 01:22:42;;;;;;;4.2;2.1;;;;;;;;;;;;;
2020/12/20 01:25:07;;;;;;;4;2.1;;;;;;;;;;;;;
2020/12/20 01:27:32;;;;;;;5.9;3.1;;;;;;;;;;;;;
2020/12/20 01:29:57;;;;;;;6.7;2.3;;;;;;;;;;;;;
2020/12/20 01:32:22;;;;;;;2.7;1.6;;;;;;;;;;;;;
2020/12/20 01:34:47;;;;;;;3;1.8;;;;;;;;;;;;;
2020/12/20 01:37:13;;;;;;;2.2;1.3;;;;;;;;;;;;;
2020/12/20 01:39:39;;;;;;;2.2;1.5;;;;;;;;;;;;;
2020/12/20 01:42:04;;;;;;;4.1;1.8;;;;;;;;;;;;;
2020/12/20 01:44:30;;;;;;;5;1.8;;;;;;;;;;;;;
2020/12/20 01:46:55;;;;;;;2.6;1.3;;;;;;;;;;;;;
2020/12/20 01:49:21;;;;;;;1.4;1.3;;;;;;;;;;;;;
2020/12/20 01:51:46;;;;;;;3.3;1.3;;;;;;;;;;;;;
2020/12/20 01:54:11;;;;;;;4.1;1.8;;;;;;;;;;;;;
2020/12/20 01:56:36;;;;;;;2.5;1.4;;;;;;;;;;;;;
2020/12/20 01:59:01;;;;;;;1.1;0.9;;;;;;;;;;;;;
2020/12/20 02:01:26;;;;;;;4.5;1.6;;;;;;;;;;;;;
2020/12/20 02:03:52;;;;;;;2.4;1.4;;;;;;;;;;;;;
2020/12/20 02:06:19;;;;;;;2;1.3;;;;;;;;;;;;;
2020/12/20 02:08:44;;;;;;;2.7;1.6;;;;;;;;;;;;;
2020/12/20 02:11:09;;;;;;;3.4;1.5;;;;;;;;;;;;;
2020/12/20 02:13:34;;;;;;;2.4;1.2;;;;;;;;;;;;;
2020/12/20 02:16:00;;;;;;;2.7;1.7;;;;;;;;;;;;;
2020/12/20 02:18:25;;;;;;;0.8;0.8;;;;;;;;;;;;;
2020/12/20 02:20:52;;;;;;;4.7;1.3;;;;;;;;;;;;;
2020/12/20 02:23:16;;;;;;;1.8;1.5;;;;;;;;;;;;;
2020/12/20 02:25:42;;;;;;;0.8;0.8;;;;;;;;;;;;;
2020/12/20 02:28:07;;;;;;;1.8;0.9;;;;;;;;;;;;;
2020/12/20 02:30:34;;;;;;;0.7;0.6;;;;;;;;;;;;;
2020/12/20 02:32:59;;;;;;;1.2;1.1;;;;;;;;;;;;;
2020/12/20 02:35:24;;;;;;;2.6;0.9;;;;;;;;;;;;;
2020/12/20 02:37:49;;;;;;;0.9;0.7;;;;;;;;;;;;;
2020/12/20 02:40:14;;;;;;;1.6;1.3;;;;;;;;;;;;;
2020/12/20 02:42:40;;;;;;;1.8;0.9;;;;;;;;;;;;;
2020/12/20 02:45:05;;;;;;;3;1.4;;;;;;;;;;;;;
2020/12/20 02:47:31;;;;;;;3;1.5;;;;;;;;;;;;;
2020/12/20 02:49:56;;;;;;;3.4;1.2;;;;;;;;;;;;;
2020/12/20 02:52:22;;;;;;;2.9;1.3;;;;;;;;;;;;;
2020/12/20 02:54:47;;;;;;;0.7;0.7;;;;;;;;;;;;;
2020/12/20 02:57:12;;;;;;;2.1;1.3;;;;;;;;;;;;;
2020/12/20 02:59:37;;;;;;;5.3;2.2;;;;;;;;;;;;;
2020/12/20 03:02:03;;;;;;;2;1.2;;;;;;;;;;;;;
2020/12/20 03:04:28;;;;;;;3.9;1.7;;;;;;;;;;;;;
2020/12/20 03:06:55;;;;;;;2;1.4;;;;;;;;;;;;;
2020/12/20 03:09:20;;;;;;;4.7;1.6;;;;;;;;;;;;;
2020/12/20 03:11:45;;;;;;;2.9;1.8;;;;;;;;;;;;;
2020/12/20 03:14:10;;;;;;;2;1.6;;;;;;;;;;;;;
2020/12/20 03:16:37;;;;;;;2.5;1.6;;;;;;;;;;;;;
2020/12/20 03:19:02;;;;;;;3.1;1.2;;;;;;;;;;;;;
2020/12/20 03:21:28;;;;;;;3.5;0.9;;;;;;;;;;;;;
2020/12/20 03:23:54;;;;;;;2.9;1.3;;;;;;;;;;;;;
2020/12/20 03:26:19;;;;;;;1.4;1.2;;;;;;;;;;;;;
2020/12/20 03:28:44;;;;;;;1.1;0.8;;;;;;;;;;;;;
2020/12/20 03:31:10;;;;;;;5.5;1.1;;;;;;;;;;;;;
2020/12/20 03:33:35;;;;;;;2.6;1.4;;;;;;;;;;;;;
2020/12/20 03:36:01;;;;;;;1;0.9;;;;;;;;;;;;;
2020/12/20 03:38:26;;;;;;;1.7;1;;;;;;;;;;;;;
2020/12/20 03:40:57;;;;;;;8;1.3;;;;;;;;;;;;;
2020/12/20 03:43:24;;;;;;;2.6;1.1;;;;;;;;;;;;;
2020/12/20 03:45:49;;;;;;;0.9;0.9;;;;;;;;;;;;;
2020/12/20 03:48:16;;;;;;;0.9;0.9;;;;;;;;;;;;;
2020/12/20 03:50:41;;;;;;;1.7;0.8;;;;;;;;;;;;;
2020/12/20 03:53:06;;;;;;;2.8;0.5;;;;;;;;;;;;;
2020/12/20 03:55:31;;;;;;;0.7;0.6;;;;;;;;;;;;;
2020/12/20 03:57:57;;;;;;;1;0.9;;;;;;;;;;;;;
2020/12/20 04:02:32;;;;;;;12;1.2;;;;;;;0.37;84.09766;941.0861;;;;
2020/12/20 04:04:57;;;;;;;2.7;0.9;;;;;;;0.43;83.86523;941.2068;;;;
2020/12/20 04:07:27;;;;;;;0.5;0.5;;;;;;;0.41;83.63867;941.217;;;;
2020/12/20 04:09:55;;;;;;;0.7;0.7;;;;;;;;;;;;;
2020/12/20 04:12:20;;;;;;;0.5;0.5;;;;;;;;;;;;;
2020/12/20 04:14:47;;;;;;;0.7;0.7;;;;;;;;;;;;;
2020/12/20 04:17:11;;;;;;;0.8;0.7;;;;;;;;;;;;;
2020/12/20 04:19:37;;;;;;;0.9;0.7;;;;;;;;;;;;;
2020/12/20 04:22:02;;;;;;;1.1;0.8;;;;;;;;;;;;;
2020/12/20 04:24:27;;;;;;;3.2;1.1;;;;;;;;;;;;;
2020/12/20 04:26:53;;;;;;;0.8;0.8;;;;;;;;;;;;;
2020/12/20 04:29:19;;;;;;;1.5;0.8;;;;;;;;;;;;;
2020/12/20 04:31:44;;;;;;;0.6;0.6;;;;;;;;;;;;;
2020/12/20 04:34:11;;;;;;;1.4;0.9;;;;;;;;;;;;;
2020/12/20 04:36:36;;;;;;;1.2;1;;;;;;;;;;;;;
2020/12/20 04:39:02;;;;;;;1.2;1;;;;;;;;;;;;;
2020/12/20 04:41:28;;;;;;;1.2;1;;;;;;;;;;;;;
2020/12/20 04:43:53;;;;;;;4.1;0.6;;;;;;;;;;;;;
2020/12/20 04:46:18;;;;;;;0.8;0.6;;;;;;;;;;;;;
2020/12/20 04:48:45;;;;;;;2.9;0.6;;;;;;;;;;;;;
2020/12/20 04:51:10;;;;;;;0.7;0.7;;;;;;;;;;;;;
2020/12/20 04:53:36;;;;;;;1.3;1.2;;;;;;;;;;;;;
2020/12/20 04:56:01;;;;;;;3.4;1.5;;;;;;;;;;;;;
2020/12/20 04:58:26;;;;;;;1.9;1.5;;;;;;;;;;;;;
2020/12/20 05:00:51;;;;;;;2.7;1.4;;;;;;;;;;;;;
2020/12/20 05:03:16;;;;;;;2.8;2.2;;;;;;;;;;;;;
2020/12/20 05:05:42;;;;;;;4;2.1;;;;;;;;;;;;;
2020/12/20 05:08:07;;;;;;;1;0.9;;;;;;;;;;;;;
2020/12/20 05:10:32;;;;;;;4.7;1.4;;;;;;;;;;;;;
2020/12/20 05:12:58;;;;;;;1;0.8;;;;;;;;;;;;;
2020/12/20 05:15:25;;;;;;;0.9;0.9;;;;;;;;;;;;;
2020/12/20 05:17:50;;;;;;;2.5;0.9;;;;;;;;;;;;;
2020/12/20 05:20:16;;;;;;;4.6;1.2;;;;;;;;;;;;;
2020/12/20 05:22:41;;;;;;;1.9;1;;;;;;;;;;;;;
2020/12/20 05:25:06;;;;;;;1.2;1;;;;;;;;;;;;;
2020/12/20 05:27:31;;;;;;;1.4;1;;;;;;;;;;;;;
2020/12/20 05:29:57;;;;;;;4;1.6;;;;;;;;;;;;;
2020/12/20 05:32:22;;;;;;;3.3;1.8;;;;;;;;;;;;;
2020/12/20 05:34:47;;;;;;;7.1;2.9;;;;;;;;;;;;;
2020/12/20 05:37:12;;;;;;;6.9;3.5;;;;;;;;;;;;;
2020/12/20 05:39:39;;;;;;;9.5;4.6;;;;;;;;;;;;;
2020/12/20 05:42:04;;;;;;;10.5;3.8;;;;;;;;;;;;;
2020/12/20 05:44:31;;;;;;;3.1;2.3;;;;;;;;;;;;;
2020/12/20 05:46:57;;;;;;;4.7;2.1;;;;;;;;;;;;;
2020/12/20 05:49:23;;;;;;;3.1;1.4;;;;;;;;;;;;;
2020/12/20 05:51:48;;;;;;;3.6;2;;;;;;;;;;;;;
2020/12/20 05:54:13;;;;;;;2.2;1.5;;;;;;;;;;;;;
2020/12/20 05:56:40;;;;;;;2.9;1.9;;;;;;;;;;;;;
2020/12/20 05:59:05;;;;;;;2.5;1.1;;;;;;;;;;;;;
2020/12/20 06:01:30;;;;;;;4.3;1.5;;;;;;;;;;;;;
2020/12/20 06:03:56;;;;;;;1.2;1;;;;;;;;;;;;;
2020/12/20 06:06:21;;;;;;;4.2;1.8;;;;;;;;;;;;;
2020/12/20 06:08:46;;;;;;;7.2;1.7;;;;;;;;;;;;;
2020/12/20 06:11:12;;;;;;;2.7;1.7;;;;;;;;;;;;;
2020/12/20 06:13:38;;;;;;;5.2;1.7;;;;;;;;;;;;;
2020/12/20 06:16:03;;;;;;;6.8;1.9;;;;;;;;;;;;;
2020/12/20 06:18:31;;;;;;;1.9;1.3;;;;;;;;;;;;;
2020/12/20 06:20:55;;;;;;;2;1.2;;;;;;;;;;;;;
2020/12/20 06:23:21;;;;;;;2.8;1.3;;;;;;;;;;;;;
2020/12/20 06:25:46;;;;;;;2.1;1.5;;;;;;;;;;;;;
2020/12/20 06:28:11;;;;;;;7.8;4.9;;;;;;;;;;;;;
2020/12/20 06:30:37;;;;;;;7.9;4.3;;;;;;;;;;;;;
2020/12/20 06:33:02;;;;;;;5.3;2.8;;;;;;;;;;;;;
2020/12/20 06:35:27;;;;;;;6;1.6;;;;;;;;;;;;;
2020/12/20 06:37:53;;;;;;;7.5;2.1;;;;;;;;;;;;;
2020/12/20 06:40:18;;;;;;;2.1;1.8;;;;;;;;;;;;;
2020/12/20 06:42:43;;;;;;;1.2;1.1;;;;;;;;;;;;;
2020/12/20 06:45:09;;;;;;;2;1.3;;;;;;;;;;;;;
2020/12/20 06:47:35;;;;;;;2.2;1.6;;;;;;;;;;;;;
2020/12/20 06:50:01;;;;;;;4.1;2;;;;;;;;;;;;;
2020/12/20 06:52:27;;;;;;;17.2;2.4;;;;;;;;;;;;;
2020/12/20 06:54:51;;;;;;;3.6;1.9;;;;;;;;;;;;;
2020/12/20 06:57:16;;;;;;;2.6;1.7;;;;;;;;;;;;;
2020/12/20 06:59:41;;;;;;;6.5;2.6;;;;;;;;;;;;;
2020/12/20 07:02:07;;;;;;;2.6;2.3;;;;;;;;;;;;;
2020/12/20 07:04:32;;;;;;;3.1;2.5;;;;;;;;;;;;;
2020/12/20 07:06:57;;;;;;;2.6;2.4;;;;;;;;;;;;;
2020/12/20 07:09:23;;;;;;;5.8;2.9;;;;;;;;;;;;;
2020/12/20 07:11:49;;;;;;;5.3;3.2;;;;;;;;;;;;;
2020/12/20 07:14:13;;;;;;;7.4;3.3;;;;;;;;;;;;;
2020/12/20 07:16:38;;;;;;;7.1;3;;;;;;;;;;;;;
2020/12/20 07:19:03;;;;;;;9.2;3.8;;;;;;;;;;;;;
2020/12/20 07:21:28;;;;;;;5.9;2.9;;;;;;;;;;;;;
2020/12/20 07:23:53;;;;;;;5.6;2.3;;;;;;;;;;;;;
2020/12/20 07:26:19;;;;;;;2.8;2.2;;;;;;;;;;;;;
2020/12/20 07:28:45;;;;;;;8.2;3.7;;;;;;;;;;;;;
2020/12/20 07:31:12;;;;;;;4.9;3.3;;;;;;;;;;;;;
2020/12/20 07:33:37;;;;;;;3.6;2.5;;;;;;;;;;;;;
2020/12/20 07:36:02;;;;;;;7.1;3.7;;;;;;;;;;;;;
2020/12/20 07:38:28;;;;;;;4.6;2.3;;;;;;;;;;;;;
2020/12/20 07:40:55;;;;;;;2.3;1.9;;;;;;;;;;;;;
2020/12/20 07:43:20;;;;;;;2.9;1.6;;;;;;;;;;;;;
2020/12/20 07:45:46;;;;;;;2.2;1.4;;;;;;;;;;;;;
2020/12/20 07:48:11;;;;;;;4.9;3.5;;;;;;;;;;;;;
2020/12/20 07:50:37;;;;;;;6.7;2.7;;;;;;;;;;;;;
2020/12/20 07:53:02;;;;;;;2.9;2.1;;;;;;;;;;;;;
2020/12/20 07:55:27;;;;;;;3.1;2.2;;;;;;;;;;;;;
2020/12/20 07:57:52;;;;;;;3.8;2.5;;;;;;;;;;;;;
2020/12/20 08:00:21;;;;;;;4.4;1.6;;;;;;;;;;;;;
2020/12/20 08:02:46;;;;;;;2.9;2.4;;;;;;;;;;;;;
2020/12/20 08:05:11;;;;;;;3.6;2.8;;;;;;;;;;;;;
2020/12/20 08:07:36;;;;;;;1.7;1.3;;;;;;;;;;;;;
2020/12/20 08:10:01;;;;;;;2.7;1.9;;;;;;;;;;;;;
2020/12/20 08:12:27;;;;;;;3.4;2.3;;;;;;;;;;;;;
2020/12/20 08:14:52;;;;;;;3.5;2.1;;;;;;;;;;;;;
2020/12/20 08:17:17;;;;;;;4.7;2.4;;;;;;;;;;;;;
2020/12/20 08:19:42;;;;;;;3.1;2.5;;;;;;;;;;;;;
2020/12/20 08:22:07;;;;;;;2.7;2.1;;;;;;;;;;;;;
2020/12/20 08:24:33;;;;;;;4.5;3.1;;;;;;;;;;;;;
2020/12/20 08:26:58;;;;;;;8.9;3.4;;;;;;;;;;;;;
2020/12/20 08:29:23;;;;;;;3.8;2.6;;;;;;;;;;;;;
2020/12/20 08:31:48;;;;;;;2.5;1.5;;;;;;;;;;;;;
2020/12/20 08:34:13;;;;;;;6.2;2.7;;;;;;;;;;;;;
2020/12/20 08:36:39;;;;;;;3.7;2;;;;;;;;;;;;;
2020/12/20 08:39:06;;;;;;;3.8;2.1;;;;;;;;;;;;;
2020/12/20 08:41:29;;;;;;;2.2;1.5;;;;;;;;;;;;;
2020/12/20 08:43:55;;;;;;;3.5;2;;;;;;;;;;;;;
2020/12/20 08:46:20;;;;;;;3.6;2;;;;;;;;;;;;;
2020/12/20 08:48:45;;;;;;;14.8;6.5;;;;;;;;;;;;;
2020/12/20 08:51:10;;;;;;;16.1;6.6;;;;;;;;;;;;;
2020/12/20 08:53:37;;;;;;;6.4;4.1;;;;;;;;;;;;;
2020/12/20 08:56:01;;;;;;;7.3;2.8;;;;;;;;;;;;;
2020/12/20 08:58:26;;;;;;;7.2;3;;;;;;;;;;;;;
2020/12/20 09:00:51;;;;;;;8.9;3.4;;;;;;;;;;;;;
2020/12/20 09:03:16;;;;;;;7;3.5;;;;;;;;;;;;;
2020/12/20 09:05:41;;;;;;;7.5;3.6;;;;;;;;;;;;;
2020/12/20 09:08:07;;;;;;;8.9;4.3;;;;;;;;;;;;;
2020/12/20 09:10:33;;;;;;;11;4.6;;;;;;;;;;;;;
2020/12/20 09:12:59;;;;;;;6.8;4.2;;;;;;;;;;;;;
2020/12/20 09:15:25;;;;;;;6.2;3.5;;;;;;;;;;;;;
2020/12/20 09:17:51;;;;;;;6.2;3.7;;;;;;;;;;;;;
2020/12/20 09:20:16;;;;;;;8.7;4.5;;;;;;;;;;;;;
2020/12/20 09:22:41;;;;;;;8.8;3.4;;;;;;;;;;;;;
2020/12/20 09:25:07;;;;;;;6;4;;;;;;;;;;;;;
2020/12/20 09:27:32;;;;;;;9.3;5;;;;;;;;;;;;;
2020/12/20 09:29:57;;;;;;;24.5;11.6;;;;;;;;;;;;;
2020/12/20 09:32:22;;;;;;;13.3;5.5;;;;;;;;;;;;;
2020/12/20 09:34:47;;;;;;;13.9;6.5;;;;;;;;;;;;;
2020/12/20 09:37:13;;;;;;;22;9.4;;;;;;;;;;;;;
2020/12/20 09:39:38;;;;;;;24.6;11.7;;;;;;;;;;;;;
2020/12/20 09:42:03;;;;;;;44.6;19.4;;;;;;;;;;;;;
2020/12/20 09:44:29;;;;;;;8.3;4.9;;;;;;;;;;;;;
2020/12/20 09:46:55;;;;;;;11.1;5.8;;;;;;;;;;;;;
2020/12/20 09:49:20;;;;;;;15.1;4.1;;;;;;;;;;;;;
2020/12/20 09:51:45;;;;;;;9.5;4.7;;;;;;;;;;;;;
2020/12/20 09:54:11;;;;;;;8.4;4.2;;;;;;;;;;;;;
2020/12/20 09:56:36;;;;;;;7.1;3.5;;;;;;;;;;;;;
2020/12/20 09:59:03;;;;;;;5.7;3.2;;;;;;;;;;;;;
2020/12/20 10:01:28;;;;;;;5.8;2.9;;;;;;;;;;;;;
2020/12/20 10:03:53;;;;;;;6.3;2.9;;;;;;;;;;;;;
2020/12/20 10:06:19;;;;;;;6.9;4;;;;;;;;;;;;;
2020/12/20 10:08:45;;;;;;;2.7;1.9;;;;;;;;;;;;;
2020/12/20 10:11:10;;;;;;;3.1;1.8;;;;;;;;;;;;;
2020/12/20 10:13:36;;;;;;;6.3;3.5;;;;;;;;;;;;;
2020/12/20 10:16:01;;;;;;;5.7;3.2;;;;;;;;;;;;;
2020/12/20 10:18:27;;;;;;;4.4;1.8;;;;;;;;;;;;;
2020/12/20 10:20:52;;;;;;;3.7;2.4;;;;;;;;;;;;;
2020/12/20 10:23:18;;;;;;;7.8;4.3;;;;;;;;;;;;;
2020/12/20 10:25:43;;;;;;;4.8;2.3;;;;;;;;;;;;;
2020/12/20 10:28:10;;;;;;;3.4;2.4;;;;;;;;;;;;;
2020/12/20 10:30:35;;;;;;;5;2.8;;;;;;;;;;;;;
2020/12/20 10:33:01;;;;;;;7.2;3.5;;;;;;;;;;;;;
2020/12/20 10:35:27;;;;;;;6;2.4;;;;;;;;;;;;;
2020/12/20 10:37:52;;;;;;;7.5;2.8;;;;;;;;;;;;;
2020/12/20 10:40:17;;;;;;;6.8;3.5;;;;;;;;;;;;;
2020/12/20 10:42:43;;;;;;;9.4;4.6;;;;;;;;;;;;;
2020/12/20 10:45:08;;;;;;;6.1;3.5;;;;;;;;;;;;;
2020/12/20 10:47:35;;;;;;;4.9;3.2;;;;;;;;;;;;;
2020/12/20 10:50:00;;;;;;;4.1;2.7;;;;;;;;;;;;;
2020/12/20 10:52:26;;;;;;;6.4;3.2;;;;;;;;;;;;;
2020/12/20 10:54:51;;;;;;;3.5;2.2;;;;;;;;;;;;;
2020/12/20 10:57:17;;;;;;;4.3;2.2;;;;;;;;;;;;;
2020/12/20 10:59:42;;;;;;;4.7;2.7;;;;;;;;;;;;;
2020/12/20 11:02:07;;;;;;;6.6;2.9;;;;;;;;;;;;;
2020/12/20 11:04:33;;;;;;;6.6;3.5;;;;;;;;;;;;;
2020/12/20 11:06:58;;;;;;;4.8;2.5;;;;;;;;;;;;;
2020/12/20 11:09:23;;;;;;;2.7;1.8;;;;;;;;;;;;;
2020/12/20 11:11:49;;;;;;;1.1;1;;;;;;;;;;;;;
2020/12/20 11:14:14;;;;;;;1.3;0.7;;;;;;;;;;;;;
2020/12/20 11:16:39;;;;;;;2.7;0.7;;;;;;;;;;;;;
2020/12/20 11:19:05;;;;;;;1.4;0.9;;;;;;;;;;;;;
2020/12/20 11:21:30;;;;;;;1.5;0.8;;;;;;;;;;;;;
2020/12/20 11:23:55;;;;;;;1.4;0.8;;;;;;;;;;;;;
2020/12/20 11:26:20;;;;;;;1.2;1.1;;;;;;;;;;;;;
2020/12/20 11:28:46;;;;;;;1.9;0.9;;;;;;;;;;;;;
2020/12/20 11:31:12;;;;;;;0.3;0.3;;;;;;;;;;;;;
2020/12/20 11:33:37;;;;;;;1.2;0.9;;;;;;;;;;;;;
2020/12/20 11:36:02;;;;;;;2.2;0.9;;;;;;;;;;;;;
2020/12/20 11:38:27;;;;;;;1;0.6;;;;;;;;;;;;;
2020/12/20 11:40:52;;;;;;;1;0.9;;;;;;;;;;;;;
2020/12/20 11:43:17;;;;;;;0.9;0.7;;;;;;;;;;;;;
2020/12/20 11:45:45;;;;;;;0.9;0.8;;;;;;;;;;;;;
2020/12/20 11:48:08;;;;;;;1.8;1.3;;;;;;;;;;;;;
2020/12/20 11:50:33;;;;;;;1.6;1;;;;;;;;;;;;;
2020/12/20 11:52:58;;;;;;;2.7;1.1;;;;;;;;;;;;;
2020/12/20 11:55:24;;;;;;;1;0.7;;;;;;;;;;;;;
2020/12/20 11:57:49;;;;;;;1.4;1;;;;;;;;;;;;;
2020/12/20 12:00:18;;;;;;;0.8;0.8;;;;;;;;;;;;;
2020/12/20 12:02:43;;;;;;;0.9;0.7;;;;;;;;;;;;;
2020/12/20 12:05:09;;;;;;;1.8;0.7;;;;;;;;;;;;;
2020/12/20 12:07:34;;;;;;;1;0.6;;;;;;;;;;;;;
2020/12/20 12:09:59;;;;;;;0.9;0.6;;;;;;;;;;;;;
2020/12/20 12:12:25;;;;;;;0.6;0.6;;;;;;;;;;;;;
2020/12/20 12:14:50;;;;;;;1.5;1.1;;;;;;;;;;;;;
2020/12/20 12:17:16;;;;;;;0.8;0.8;;;;;;;;;;;;;
2020/12/20 12:19:40;;;;;;;12.7;0.9;;;;;;;;;;;;;
2020/12/20 12:22:06;;;;;;;0.7;0.7;;;;;;;;;;;;;
2020/12/20 12:24:31;;;;;;;1.1;0.7;;;;;;;;;;;;;
2020/12/20 12:26:56;;;;;;;8;0.6;;;;;;;;;;;;;
2020/12/20 12:29:21;;;;;;;0.4;0.4;;;;;;;;;;;;;
2020/12/20 12:31:46;;;;;;;0.7;0.7;;;;;;;;;;;;;
2020/12/20 12:34:11;;;;;;;0.5;0.5;;;;;;;;;;;;;
2020/12/20 12:36:37;;;;;;;1.1;0.8;;;;;;;;;;;;;
2020/12/20 12:39:03;;;;;;;1.6;0.9;;;;;;;;;;;;;
2020/12/20 12:41:27;;;;;;;0.7;0.6;;;;;;;;;;;;;
2020/12/20 12:43:52;;;;;;;3.1;1.3;;;;;;;;;;;;;
2020/12/20 12:46:17;;;;;;;2.5;1;;;;;;;;;;;;;
2020/12/20 12:48:42;;;;;;;0.7;0.7;;;;;;;;;;;;;
2020/12/20 12:51:07;;;;;;;1.1;0.9;;;;;;;;;;;;;
2020/12/20 12:53:33;;;;;;;2;1.3;;;;;;;;;;;;;
2020/12/20 12:55:58;;;;;;;1.2;0.8;;;;;;;;;;;;;
2020/12/20 12:58:23;;;;;;;1.4;1.1;;;;;;;;;;;;;
2020/12/20 13:00:48;;;;;;;6.2;0.8;;;;;;;;;;;;;
2020/12/20 13:03:13;;;;;;;1.6;1.1;;;;;;;;;;;;;
2020/12/20 13:05:38;;;;;;;1.7;1.2;;;;;;;;;;;;;
2020/12/20 13:08:03;;;;;;;1.3;1;;;;;;;;;;;;;
2020/12/20 13:10:29;;;;;;;3.9;1.1;;;;;;;;;;;;;
2020/12/20 13:12:54;;;;;;;0.8;0.8;;;;;;;;;;;;;
2020/12/20 13:15:20;;;;;;;1.1;0.6;;;;;;;;;;;;;
2020/12/20 13:17:45;;;;;;;0.8;0.7;;;;;;;;;;;;;
2020/12/20 13:20:11;;;;;;;0.5;0.5;;;;;;;;;;;;;
2020/12/20 13:22:36;;;;;;;0.7;0.6;;;;;;;;;;;;;
2020/12/20 13:25:02;;;;;;;0.4;0.4;;;;;;;;;;;;;
2020/12/20 13:27:28;;;;;;;1;0.5;;;;;;;;;;;;;
2020/12/20 13:29:53;;;;;;;0.7;0.6;;;;;;;;;;;;;
2020/12/20 13:32:18;;;;;;;0.8;0.4;;;;;;;;;;;;;
2020/12/20 13:34:43;;;;;;;0.7;0.6;;;;;;;;;;;;;
2020/12/20 13:37:08;;;;;;;1;0.6;;;;;;;;;;;;;
2020/12/20 13:39:33;;;;;;;0.9;0.8;;;;;;;;;;;;;
2020/12/20 13:41:58;;;;;;;2;0.4;;;;;;;;;;;;;
2020/12/20 13:44:23;;;;;;;1.1;0.5;;;;;;;;;;;;;
2020/12/20 13:46:49;;;;;;;1;0.6;;;;;;;;;;;;;
2020/12/20 13:49:14;;;;;;;0.4;0.4;;;;;;;;;;;;;
2020/12/20 13:51:39;;;;;;;0.7;0.7;;;;;;;;;;;;;
2020/12/20 13:54:04;;;;;;;3.4;0.7;;;;;;;;;;;;;
2020/12/20 13:56:31;;;;;;;1.6;1.1;;;;;;;;;;;;;
2020/12/20 13:58:55;;;;;;;1.6;0.9;;;;;;;;;;;;;
2020/12/20 14:01:20;;;;;;;1;0.7;;;;;;;;;;;;;
2020/12/20 14:03:45;;;;;;;1.3;1;;;;;;;;;;;;;
2020/12/20 14:06:11;;;;;;;6.1;1.1;;;;;;;;;;;;;
2020/12/20 14:08:36;;;;;;;2.3;1.5;;;;;;;;;;;;;
2020/12/20 14:11:01;;;;;;;11.3;3.2;;;;;;;;;;;;;
2020/12/20 14:13:26;;;;;;;24.6;3.1;;;;;;;;;;;;;
2020/12/20 14:15:51;;;;;;;8.9;2.4;;;;;;;;;;;;;
2020/12/20 14:18:18;;;;;;;8;1.8;;;;;;;;;;;;;
2020/12/20 14:20:41;;;;;;;3.3;1.7;;;;;;;;;;;;;
2020/12/20 14:23:07;;;;;;;32.2;2.4;;;;;;;;;;;;;
2020/12/20 14:25:33;;;;;;;4.4;1.7;;;;;;;;;;;;;
2020/12/20 14:27:57;;;;;;;6.5;1.7;;;;;;;;;;;;;
2020/12/20 14:30:23;;;;;;;2.7;1.3;;;;;;;;;;;;;
2020/12/20 14:32:49;;;;;;;1.6;0.9;;;;;;;;;;;;;
2020/12/20 14:35:14;;;;;;;5.5;2;;;;;;;;;;;;;
2020/12/20 14:37:39;;;;;;;1.9;1.7;;;;;;;;;;;;;
2020/12/20 14:40:04;;;;;;;9.9;2.2;;;;;;;;;;;;;
2020/12/20 14:42:29;;;;;;;7.3;2;;;;;;;;;;;;;
2020/12/20 14:44:55;;;;;;;3.7;1.9;;;;;;;;;;;;;
2020/12/20 14:47:20;;;;;;;3.2;1.6;;;;;;;;;;;;;
2020/12/20 14:49:45;;;;;;;3.7;1.7;;;;;;;;;;;;;
2020/12/20 14:52:11;;;;;;;2;1.3;;;;;;;;;;;;;
2020/12/20 14:54:37;;;;;;;1.6;1.4;;;;;;;;;;;;;
2020/12/20 14:57:02;;;;;;;7.5;2.7;;;;;;;;;;;;;
2020/12/20 14:59:27;;;;;;;7.6;1.9;;;;;;;;;;;;;
2020/12/20 15:01:52;;;;;;;5;2;;;;;;;;;;;;;
2020/12/20 15:04:17;;;;;;;4.6;2.5;;;;;;;;;;;;;
2020/12/20 15:06:42;;;;;;;6.4;2.6;;;;;;;;;;;;;
2020/12/20 15:09:07;;;;;;;4.1;2.3;;;;;;;;;;;;;
2020/12/20 15:11:32;;;;;;;7;4.4;;;;;;;;;;;;;
2020/12/20 15:13:58;;;;;;;4.9;2.9;;;;;;;;;;;;;
2020/12/20 15:16:24;;;;;;;4.6;3.2;;;;;;;;;;;;;
2020/12/20 15:18:49;;;;;;;7.8;4.2;;;;;;;;;;;;;
2020/12/20 15:21:14;;;;;;;7.1;3.9;;;;;;;;;;;;;
2020/12/20 15:23:39;;;;;;;9;3.4;;;;;;;;;;;;;
2020/12/20 15:26:04;;;;;;;9.4;5.3;;;;;;;;;;;;;
2020/12/20 15:28:29;;;;;;;8.7;4.7;;;;;;;;;;;;;
2020/12/20 15:30:55;;;;;;;18.3;10;;;;;;;;;;;;;
2020/12/20 15:33:20;;;;;;;28.1;13.5;;;;;;;;;;;;;
2020/12/20 15:35:45;;;;;;;20.9;10.8;;;;;;;;;;;;;
2020/12/20 15:38:10;;;;;;;21.7;8.1;;;;;;;;;;;;;
2020/12/20 15:40:37;;;;;;;11.7;5.8;;;;;;;;;;;;;
2020/12/20 15:43:03;;;;;;;11;6.3;;;;;;;;;;;;;
2020/12/20 15:45:29;;;;;;;14.7;6.3;;;;;;;;;;;;;
2020/12/20 15:47:54;;;;;;;11.2;6.5;;;;;;;;;;;;;
2020/12/20 15:50:20;;;;;;;11.5;7.2;;;;;;;;;;;;;
2020/12/20 15:52:45;;;;;;;15.5;8.1;;;;;;;;;;;;;
2020/12/20 15:55:11;;;;;;;13.9;8.6;;;;;;;;;;;;;
2020/12/20 15:57:36;;;;;;;11.5;6.8;;;;;;;;;;;;;
2020/12/20 16:00:02;;;;;;;16.8;9.1;;;;;;;;;;;;;
2020/12/20 16:02:27;;;;;;;20.7;8.8;;;;;;;;;;;;;
2020/12/20 16:04:53;;;;;;;27;12.9;;;;;;;;;;;;;
2020/12/20 16:07:18;;;;;;;27.4;10.9;;;;;;;;;;;;;
2020/12/20 16:09:43;;;;;;;20.4;10.8;;;;;;;;;;;;;
2020/12/20 16:12:08;;;;;;;24.2;12.9;;;;;;;;;;;;;
2020/12/20 16:14:33;;;;;;;17.4;9.6;;;;;;;;;;;;;
2020/12/20 16:17:00;;;;;;;23.1;11.1;;;;;;;;;;;;;
2020/12/20 16:19:23;;;;;;;47.4;23.6;;;;;;;;;;;;;
2020/12/20 16:21:48;;;;;;;32.8;14.2;;;;;;;;;;;;;
2020/12/20 16:24:14;;;;;;;113.8;52.7;;;;;;;;;;;;;
2020/12/20 16:26:40;;;;;;;28;12.7;;;;;;;;;;;;;
2020/12/20 16:29:05;;;;;;;18;9.8;;;;;;;;;;;;;
2020/12/20 16:31:31;;;;;;;14.7;9.1;;;;;;;;;;;;;
2020/12/20 16:33:56;;;;;;;21.8;10.7;;;;;;;;;;;;;
2020/12/20 16:36:23;;;;;;;26.9;13.7;;;;;;;;;;;;;
2020/12/20 16:38:47;;;;;;;35.7;16.8;;;;;;;;;;;;;
2020/12/20 16:41:12;;;;;;;32.2;15.2;;;;;;;;;;;;;
2020/12/20 16:43:37;;;;;;;28.6;13.6;;;;;;;;;;;;;
2020/12/20 16:46:02;;;;;;;146.8;63;;;;;;;;;;;;;
2020/12/20 16:48:27;;;;;;;37.8;15;;;;;;;;;;;;;
2020/12/20 16:50:52;;;;;;;85.2;38.3;;;;;;;;;;;;;
2020/12/20 16:53:18;;;;;;;32.9;15.1;;;;;;;;;;;;;
2020/12/20 16:55:43;;;;;;;23;12.7;;;;;;;;;;;;;
2020/12/20 16:58:08;;;;;;;24.1;11.4;;;;;;;;;;;;;
2020/12/20 17:00:35;;;;;;;22.5;10.7;;;;;;;;;;;;;
2020/12/20 17:03:00;;;;;;;21.2;11.7;;;;;;;;;;;;;
2020/12/20 17:05:25;;;;;;;26;11.8;;;;;;;;;;;;;
2020/12/20 17:07:50;;;;;;;26.7;12.8;;;;;;;;;;;;;
2020/12/20 17:10:15;;;;;;;25.1;11.5;;;;;;;;;;;;;
2020/12/20 17:12:40;;;;;;;39.6;17.6;;;;;;;;;;;;;
2020/12/20 17:15:05;;;;;;;26.7;13.9;;;;;;;;;;;;;
2020/12/20 17:17:30;;;;;;;20.8;10.7;;;;;;;;;;;;;
2020/12/20 17:19:56;;;;;;;28;13.7;;;;;;;;;;;;;
2020/12/20 17:22:22;;;;;;;17.8;9.1;;;;;;;;;;;;;
2020/12/20 17:24:47;;;;;;;13.3;7.3;;;;;;;;;;;;;
2020/12/20 17:27:12;;;;;;;17.3;8;;;;;;;;;;;;;
2020/12/20 17:29:37;;;;;;;21.3;8.6;;;;;;;;;;;;;
2020/12/20 17:32:03;;;;;;;17.6;8.8;;;;;;;;;;;;;
2020/12/20 17:34:28;;;;;;;19.9;8.4;;;;;;;;;;;;;
2020/12/20 17:36:53;;;;;;;15.3;7.4;;;;;;;;;;;;;
2020/12/20 17:39:19;;;;;;;18.4;8.5;;;;;;;;;;;;;
2020/12/20 17:41:43;;;;;;;17.5;9.2;;;;;;;;;;;;;
2020/12/20 17:44:09;;;;;;;19.1;9.3;;;;;;;;;;;;;
2020/12/20 17:46:34;;;;;;;20.6;9.7;;;;;;;;;;;;;
2020/12/20 17:48:59;;;;;;;19.3;9.8;;;;;;;;;;;;;
2020/12/20 17:51:25;;;;;;;23.8;10;;;;;;;;;;;;;
2020/12/20 17:53:49;;;;;;;17.5;9.7;;;;;;;;;;;;;
2020/12/20 17:56:15;;;;;;;22.1;10.4;;;;;;;;;;;;;
2020/12/20 17:58:40;;;;;;;21.1;11.4;;;;;;;;;;;;;
2020/12/20 18:01:05;;;;;;;15.4;10.2;;;;;;;;;;;;;
2020/12/20 18:03:30;;;;;;;26.8;12.3;;;;;;;;;;;;;
2020/12/20 18:05:55;;;;;;;29.3;12.6;;;;;;;;;;;;;
2020/12/20 18:08:20;;;;;;;22.9;11.3;;;;;;;;;;;;;
2020/12/20 18:10:46;;;;;;;23.2;12.7;;;;;;;;;;;;;
2020/12/20 18:13:11;;;;;;;26.6;13.4;;;;;;;;;;;;;
2020/12/20 18:15:37;;;;;;;35.5;17.9;;;;;;;;;;;;;
2020/12/20 18:18:02;;;;;;;34.5;17.3;;;;;;;;;;;;;
2020/12/20 18:20:28;;;;;;;27.3;13.9;;;;;;;;;;;;;
2020/12/20 18:22:53;;;;;;;38.4;16.6;;;;;;;;;;;;;
2020/12/20 18:25:18;;;;;;;22.6;12.3;;;;;;;;;;;;;
2020/12/20 18:27:43;;;;;;;33.1;14.5;;;;;;;;;;;;;
2020/12/20 18:30:09;;;;;;;31.8;13.9;;;;;;;;;;;;;
2020/12/20 18:32:34;;;;;;;38.3;16.6;;;;;;;;;;;;;
2020/12/20 18:34:59;;;;;;;37;14.7;;;;;;;;;;;;;
2020/12/20 18:37:24;;;;;;;36.7;15.3;;;;;;;;;;;;;
2020/12/20 18:39:49;;;;;;;35.9;17.4;;;;;;;;;;;;;
2020/12/20 18:42:14;;;;;;;37.2;17.9;;;;;;;;;;;;;
2020/12/20 18:44:39;;;;;;;32.1;16.3;;;;;;;;;;;;;
2020/12/20 18:47:04;;;;;;;37.4;18.1;;;;;;;;;;;;;
2020/12/20 18:49:30;;;;;;;35.1;17.3;;;;;;;;;;;;;
2020/12/20 18:51:55;;;;;;;28.2;15.8;;;;;;;;;;;;;
2020/12/20 18:54:20;;;;;;;37.3;16.1;;;;;;;;;;;;;
2020/12/20 18:56:45;;;;;;;28.9;15.5;;;;;;;;;;;;;
2020/12/20 18:59:10;;;;;;;27.4;14.9;;;;;;;;;;;;;
2020/12/20 19:01:37;;;;;;;34.3;16.4;;;;;;;;;;;;;
2020/12/20 19:04:01;;;;;;;33;15.4;;;;;;;;;;;;;
2020/12/20 19:06:26;;;;;;;30.9;15.6;;;;;;;;;;;;;
2020/12/20 19:08:51;;;;;;;31.3;14.4;;;;;;;;;;;;;
2020/12/20 19:11:16;;;;;;;31.8;15.3;;;;;;;;;;;;;
2020/12/20 19:13:41;;;;;;;33.5;16.4;;;;;;;;;;;;;
2020/12/20 19:16:06;;;;;;;32.5;16.9;;;;;;;;;;;;;
2020/12/20 19:18:31;;;;;;;50.7;21.6;;;;;;;;;;;;;
2020/12/20 19:20:56;;;;;;;50.1;18.5;;;;;;;;;;;;;
2020/12/20 19:23:22;;;;;;;44.8;17.7;;;;;;;;;;;;;
2020/12/20 19:25:48;;;;;;;35.1;16.8;;;;;;;;;;;;;
2020/12/20 19:28:13;;;;;;;39.2;15.9;;;;;;;;;;;;;
2020/12/20 19:30:39;;;;;;;35.3;16.5;;;;;;;;;;;;;
2020/12/20 19:33:04;;;;;;;34.5;14.8;;;;;;;;;;;;;
2020/12/20 19:35:29;;;;;;;41.3;17.2;;;;;;;;;;;;;
2020/12/20 19:37:54;;;;;;;30.3;16.7;;;;;;;;;;;;;
2020/12/20 19:40:19;;;;;;;30.7;15.2;;;;;;;;;;;;;
2020/12/20 19:42:44;;;;;;;36.6;15.6;;;;;;;;;;;;;
2020/12/20 19:45:10;;;;;;;34.9;15.2;;;;;;;;;;;;;
2020/12/20 19:47:35;;;;;;;27.7;14.6;;;;;;;;;;;;;
2020/12/20 19:50:00;;;;;;;31.9;16.3;;;;;;;;;;;;;
2020/12/20 19:52:25;;;;;;;32.5;16.2;;;;;;;;;;;;;
2020/12/20 19:54:50;;;;;;;33.2;15.4;;;;;;;;;;;;;
2020/12/20 19:57:17;;;;;;;24.6;14.2;;;;;;;;;;;;;
2020/12/20 19:59:41;;;;;;;27.7;13.3;;;;;;;;;;;;;
2020/12/20 20:02:06;;;;;;;24.9;11.4;;;;;;;;;;;;;
2020/12/20 20:04:31;;;;;;;31.9;13.1;;;;;;;;;;;;;
2020/12/20 20:06:56;;;;;;;29.9;12.5;;;;;;;;;;;;;
2020/12/20 20:09:22;;;;;;;24.2;12.3;;;;;;;;;;;;;
2020/12/20 20:11:47;;;;;;;27.3;12.1;;;;;;;;;;;;;
2020/12/20 20:14:12;;;;;;;20.2;11.3;;;;;;;;;;;;;
2020/12/20 20:16:40;;;;;;;24.2;11.2;;;;;;;;;;;;;
2020/12/20 20:19:03;;;;;;;21.9;12.1;;;;;;;;;;;;;